sensor_id;sensor_type;location;lat;lon;timestamp;temperature;humidity
29731;DHT22;16639;51.488;0.152;2022-07-23T00:00:31;17.80;99.90
29731;DHT22;16639;51.488;0.152;2022-07-23T00:03:06;17.70;99.90
29731;DHT22;16639;51.488;0.152;2022-07-23T00:05:35;17.70;99.90
29731;DHT22;16639;51.488;0.152;2022-07-23T00:08:04;17.70;99.90
29731;DHT22;16639;51.488;0.152;2022-07-23T00:10:36;17.70;99.90
29731;DHT22;16639;51.488;0.152;2022-07-23T00:13:04;17.40;99.90
29731;DHT22;16639;51.488;0.152;2022-07-23T00:15:31;18.50;99.90
29731;DHT22;16639;51.488;0.152;2022-07-23T00:17:59;17.80;99.90
29731;DHT22;16639;51.488;0.152;2022-07-23T00:20:26;17.80;99.90
29731;DHT22;16639;51.488;0.152;2022-07-23T00:22:54;17.80;99.90
29731;DHT22;16639;51.488;0.152;2022-07-23T00:25:23;17.80;99.90
29731;DHT22;16639;51.488;0.152;2022-07-23T00:27:55;17.80;99.90
29731;DHT22;16639;51.488;0.152;2022-07-23T00:30:23;17.80;99.90
29731;DHT22;16639;51.488;0.152;2022-07-23T00:32:54;17.80;99.90
29731;DHT22;16639;51.488;0.152;2022-07-23T00:35:26;17.90;99.90
29731;DHT22;16639;51.488;0.152;2022-07-23T00:37:54;17.90;99.90
29731;DHT22;16639;51.488;0.152;2022-07-23T00:40:22;17.90;99.90
29731;DHT22;16639;51.488;0.152;2022-07-23T00:42:50;18.00;99.90
29731;DHT22;16639;51.488;0.152;2022-07-23T00:45:21;18.00;99.90
29731;DHT22;16639;51.488;0.152;2022-07-23T00:47:48;18.00;99.90
29731;DHT22;16639;51.488;0.152;2022-07-23T00:50:16;17.80;99.90
29731;DHT22;16639;51.488;0.152;2022-07-23T00:52:43;17.90;99.90
29731;DHT22;16639;51.488;0.152;2022-07-23T00:55:12;18.00;99.90
29731;DHT22;16639;51.488;0.152;2022-07-23T00:57:41;18.00;99.90
29731;DHT22;16639;51.488;0.152;2022-07-23T01:00:11;18.00;99.90
29731;DHT22;16639;51.488;0.152;2022-07-23T01:02:39;18.00;99.90
29731;DHT22;16639;51.488;0.152;2022-07-23T01:05:07;18.00;99.90
29731;DHT22;16639;51.488;0.152;2022-07-23T01:07:36;18.00;99.90
29731;DHT22;16639;51.488;0.152;2022-07-23T01:10:05;18.20;99.90
29731;DHT22;16639;51.488;0.152;2022-07-23T01:12:52;18.00;99.90
29731;DHT22;16639;51.488;0.152;2022-07-23T01:15:21;18.00;99.90
29731;DHT22;16639;51.488;0.152;2022-07-23T01:17:48;18.00;99.90
29731;DHT22;16639;51.488;0.152;2022-07-23T01:20:16;18.00;99.90
29731;DHT22;16639;51.488;0.152;2022-07-23T01:22:44;18.00;99.90
29731;DHT22;16639;51.488;0.152;2022-07-23T01:25:11;17.90;99.90
29731;DHT22;16639;51.488;0.152;2022-07-23T01:27:39;17.90;99.90
29731;DHT22;16639;51.488;0.152;2022-07-23T01:30:07;17.90;99.90
29731;DHT22;16639;51.488;0.152;2022-07-23T01:32:35;17.80;99.90
29731;DHT22;16639;51.488;0.152;2022-07-23T01:35:02;17.80;99.90
29731;DHT22;16639;51.488;0.152;2022-07-23T01:37:30;17.80;99.90
29731;DHT22;16639;51.488;0.152;2022-07-23T01:39:57;17.80;99.90
29731;DHT22;16639;51.488;0.152;2022-07-23T01:42:25;17.70;99.90
29731;DHT22;16639;51.488;0.152;2022-07-23T01:44:52;17.70;99.90
29731;DHT22;16639;51.488;0.152;2022-07-23T01:47:20;17.60;99.90
29731;DHT22;16639;51.488;0.152;2022-07-23T01:49:47;17.60;99.90
29731;DHT22;16639;51.488;0.152;2022-07-23T01:52:14;17.50;99.90
29731;DHT22;16639;51.488;0.152;2022-07-23T01:54:42;17.50;99.90
29731;DHT22;16639;51.488;0.152;2022-07-23T01:57:09;17.50;99.90
29731;DHT22;16639;51.488;0.152;2022-07-23T01:59:37;17.50;99.90
29731;DHT22;16639;51.488;0.152;2022-07-23T02:02:06;17.50;99.90
29731;DHT22;16639;51.488;0.152;2022-07-23T02:04:34;17.50;99.90
29731;DHT22;16639;51.488;0.152;2022-07-23T02:07:05;17.50;99.90
29731;DHT22;16639;51.488;0.152;2022-07-23T02:09:33;17.40;99.90
29731;DHT22;16639;51.488;0.152;2022-07-23T02:12:00;17.40;99.90
29731;DHT22;16639;51.488;0.152;2022-07-23T02:14:28;17.40;99.90
29731;DHT22;16639;51.488;0.152;2022-07-23T02:16:55;17.40;99.90
29731;DHT22;16639;51.488;0.152;2022-07-23T02:19:23;17.30;99.90
29731;DHT22;16639;51.488;0.152;2022-07-23T02:21:50;17.30;99.90
29731;DHT22;16639;51.488;0.152;2022-07-23T02:24:17;17.30;99.90
29731;DHT22;16639;51.488;0.152;2022-07-23T02:26:45;17.30;99.90
29731;DHT22;16639;51.488;0.152;2022-07-23T02:29:12;17.30;99.90
29731;DHT22;16639;51.488;0.152;2022-07-23T02:31:39;17.20;99.90
29731;DHT22;16639;51.488;0.152;2022-07-23T02:34:07;17.30;99.90
29731;DHT22;16639;51.488;0.152;2022-07-23T02:36:34;17.20;99.90
29731;DHT22;16639;51.488;0.152;2022-07-23T02:39:02;17.20;99.90
29731;DHT22;16639;51.488;0.152;2022-07-23T02:41:30;17.20;99.90
29731;DHT22;16639;51.488;0.152;2022-07-23T02:43:57;17.20;99.90
29731;DHT22;16639;51.488;0.152;2022-07-23T02:46:25;17.10;99.90
29731;DHT22;16639;51.488;0.152;2022-07-23T02:48:52;17.10;99.90
29731;DHT22;16639;51.488;0.152;2022-07-23T02:51:20;17.10;99.90
29731;DHT22;16639;51.488;0.152;2022-07-23T02:53:47;17.10;99.90
29731;DHT22;16639;51.488;0.152;2022-07-23T02:56:14;17.10;99.90
29731;DHT22;16639;51.488;0.152;2022-07-23T02:58:42;17.20;99.90
29731;DHT22;16639;51.488;0.152;2022-07-23T03:01:09;17.20;99.90
29731;DHT22;16639;51.488;0.152;2022-07-23T03:03:37;17.20;99.90
29731;DHT22;16639;51.488;0.152;2022-07-23T03:06:04;17.30;99.90
29731;DHT22;16639;51.488;0.152;2022-07-23T03:08:32;17.30;99.90
29731;DHT22;16639;51.488;0.152;2022-07-23T03:10:59;17.30;99.90
29731;DHT22;16639;51.488;0.152;2022-07-23T03:13:27;17.30;99.90
29731;DHT22;16639;51.488;0.152;2022-07-23T03:15:54;17.30;99.90
29731;DHT22;16639;51.488;0.152;2022-07-23T03:18:22;17.40;99.90
29731;DHT22;16639;51.488;0.152;2022-07-23T03:20:49;17.40;99.90
29731;DHT22;16639;51.488;0.152;2022-07-23T03:23:17;17.50;99.90
29731;DHT22;16639;51.488;0.152;2022-07-23T03:25:44;17.50;99.90
29731;DHT22;16639;51.488;0.152;2022-07-23T03:28:20;17.50;99.90
29731;DHT22;16639;51.488;0.152;2022-07-23T03:30:47;17.40;99.90
29731;DHT22;16639;51.488;0.152;2022-07-23T03:33:16;17.40;99.90
29731;DHT22;16639;51.488;0.152;2022-07-23T03:35:44;17.40;99.90
29731;DHT22;16639;51.488;0.152;2022-07-23T03:38:14;17.40;99.90
29731;DHT22;16639;51.488;0.152;2022-07-23T03:40:41;17.40;99.90
29731;DHT22;16639;51.488;0.152;2022-07-23T03:43:09;17.40;99.90
29731;DHT22;16639;51.488;0.152;2022-07-23T03:45:36;17.30;99.90
29731;DHT22;16639;51.488;0.152;2022-07-23T03:48:04;17.30;99.90
29731;DHT22;16639;51.488;0.152;2022-07-23T03:50:31;17.30;99.90
29731;DHT22;16639;51.488;0.152;2022-07-23T03:52:59;17.30;99.90
29731;DHT22;16639;51.488;0.152;2022-07-23T03:55:26;17.50;99.90
29731;DHT22;16639;51.488;0.152;2022-07-23T03:57:54;17.50;99.90
29731;DHT22;16639;51.488;0.152;2022-07-23T04:00:21;17.10;99.90
29731;DHT22;16639;51.488;0.152;2022-07-23T04:02:48;17.10;99.90
29731;DHT22;16639;51.488;0.152;2022-07-23T04:05:16;17.10;99.90
29731;DHT22;16639;51.488;0.152;2022-07-23T04:07:43;17.10;99.90
29731;DHT22;16639;51.488;0.152;2022-07-23T04:10:11;17.10;99.90
29731;DHT22;16639;51.488;0.152;2022-07-23T04:12:38;17.20;99.90
29731;DHT22;16639;51.488;0.152;2022-07-23T04:15:07;17.10;99.90
29731;DHT22;16639;51.488;0.152;2022-07-23T04:17:35;17.10;99.90
29731;DHT22;16639;51.488;0.152;2022-07-23T04:20:03;17.00;99.90
29731;DHT22;16639;51.488;0.152;2022-07-23T04:22:31;17.00;99.90
29731;DHT22;16639;51.488;0.152;2022-07-23T04:24:58;17.00;99.90
29731;DHT22;16639;51.488;0.152;2022-07-23T04:27:26;17.00;99.90
29731;DHT22;16639;51.488;0.152;2022-07-23T04:29:53;17.00;99.90
29731;DHT22;16639;51.488;0.152;2022-07-23T04:32:20;17.00;99.90
29731;DHT22;16639;51.488;0.152;2022-07-23T04:34:48;17.00;99.90
29731;DHT22;16639;51.488;0.152;2022-07-23T04:37:15;17.00;99.90
29731;DHT22;16639;51.488;0.152;2022-07-23T04:39:43;17.00;99.90
29731;DHT22;16639;51.488;0.152;2022-07-23T04:42:12;17.00;99.90
29731;DHT22;16639;51.488;0.152;2022-07-23T04:44:39;17.10;99.90
29731;DHT22;16639;51.488;0.152;2022-07-23T04:47:06;17.10;99.90
29731;DHT22;16639;51.488;0.152;2022-07-23T04:49:34;17.20;99.90
29731;DHT22;16639;51.488;0.152;2022-07-23T04:52:01;17.10;99.90
29731;DHT22;16639;51.488;0.152;2022-07-23T04:54:28;17.30;99.90
29731;DHT22;16639;51.488;0.152;2022-07-23T04:56:56;17.30;99.90
29731;DHT22;16639;51.488;0.152;2022-07-23T04:59:23;17.30;99.90
29731;DHT22;16639;51.488;0.152;2022-07-23T05:01:51;17.30;99.90
29731;DHT22;16639;51.488;0.152;2022-07-23T05:04:22;17.30;99.90
29731;DHT22;16639;51.488;0.152;2022-07-23T05:06:50;17.30;99.90
29731;DHT22;16639;51.488;0.152;2022-07-23T05:09:17;17.30;99.90
29731;DHT22;16639;51.488;0.152;2022-07-23T05:11:45;17.30;99.90
29731;DHT22;16639;51.488;0.152;2022-07-23T05:14:12;17.40;99.90
29731;DHT22;16639;51.488;0.152;2022-07-23T05:16:40;17.40;99.90
29731;DHT22;16639;51.488;0.152;2022-07-23T05:19:07;17.40;99.90
29731;DHT22;16639;51.488;0.152;2022-07-23T05:21:35;17.50;99.90
29731;DHT22;16639;51.488;0.152;2022-07-23T05:24:03;17.40;99.90
29731;DHT22;16639;51.488;0.152;2022-07-23T05:26:30;17.50;99.90
29731;DHT22;16639;51.488;0.152;2022-07-23T05:28:57;17.50;99.90
29731;DHT22;16639;51.488;0.152;2022-07-23T05:31:25;17.50;99.90
29731;DHT22;16639;51.488;0.152;2022-07-23T05:33:52;17.50;99.90
29731;DHT22;16639;51.488;0.152;2022-07-23T05:36:20;17.50;99.90
29731;DHT22;16639;51.488;0.152;2022-07-23T05:38:47;17.50;99.90
29731;DHT22;16639;51.488;0.152;2022-07-23T05:41:14;17.50;99.90
29731;DHT22;16639;51.488;0.152;2022-07-23T05:43:42;17.40;99.90
29731;DHT22;16639;51.488;0.152;2022-07-23T05:46:09;17.50;99.90
29731;DHT22;16639;51.488;0.152;2022-07-23T05:48:37;17.50;99.90
29731;DHT22;16639;51.488;0.152;2022-07-23T05:51:04;17.50;99.90
29731;DHT22;16639;51.488;0.152;2022-07-23T05:53:34;17.60;99.90
29731;DHT22;16639;51.488;0.152;2022-07-23T05:56:02;17.60;99.90
29731;DHT22;16639;51.488;0.152;2022-07-23T05:58:29;17.60;99.90
29731;DHT22;16639;51.488;0.152;2022-07-23T06:00:57;17.70;99.90
29731;DHT22;16639;51.488;0.152;2022-07-23T06:03:24;17.70;99.90
29731;DHT22;16639;51.488;0.152;2022-07-23T06:05:52;17.70;99.90
29731;DHT22;16639;51.488;0.152;2022-07-23T06:08:19;17.80;99.90
29731;DHT22;16639;51.488;0.152;2022-07-23T06:10:46;17.90;99.90
29731;DHT22;16639;51.488;0.152;2022-07-23T06:13:14;17.80;99.90
29731;DHT22;16639;51.488;0.152;2022-07-23T06:15:41;17.90;99.90
29731;DHT22;16639;51.488;0.152;2022-07-23T06:18:09;18.00;99.90
29731;DHT22;16639;51.488;0.152;2022-07-23T06:20:36;18.00;99.90
29731;DHT22;16639;51.488;0.152;2022-07-23T06:23:04;18.00;99.90
29731;DHT22;16639;51.488;0.152;2022-07-23T06:25:31;18.10;99.90
29731;DHT22;16639;51.488;0.152;2022-07-23T06:27:58;18.20;99.90
29731;DHT22;16639;51.488;0.152;2022-07-23T06:30:27;18.20;99.90
29731;DHT22;16639;51.488;0.152;2022-07-23T06:32:54;18.20;99.90
29731;DHT22;16639;51.488;0.152;2022-07-23T06:35:21;17.80;99.90
29731;DHT22;16639;51.488;0.152;2022-07-23T06:37:49;18.30;99.90
29731;DHT22;16639;51.488;0.152;2022-07-23T06:40:16;18.30;99.90
29731;DHT22;16639;51.488;0.152;2022-07-23T06:42:44;18.40;99.90
29731;DHT22;16639;51.488;0.152;2022-07-23T06:45:11;18.40;99.90
29731;DHT22;16639;51.488;0.152;2022-07-23T06:47:38;18.50;99.90
29731;DHT22;16639;51.488;0.152;2022-07-23T06:50:07;18.50;99.90
29731;DHT22;16639;51.488;0.152;2022-07-23T06:52:35;18.60;99.90
29731;DHT22;16639;51.488;0.152;2022-07-23T06:55:09;18.70;99.90
29731;DHT22;16639;51.488;0.152;2022-07-23T06:57:36;18.70;99.90
29731;DHT22;16639;51.488;0.152;2022-07-23T07:00:04;18.80;99.90
29731;DHT22;16639;51.488;0.152;2022-07-23T07:02:36;18.80;99.90
29731;DHT22;16639;51.488;0.152;2022-07-23T07:05:17;18.90;99.90
29731;DHT22;16639;51.488;0.152;2022-07-23T07:07:48;18.90;99.90
29731;DHT22;16639;51.488;0.152;2022-07-23T07:10:15;18.90;99.90
29731;DHT22;16639;51.488;0.152;2022-07-23T07:12:44;18.90;99.90
29731;DHT22;16639;51.488;0.152;2022-07-23T07:15:11;19.00;99.90
29731;DHT22;16639;51.488;0.152;2022-07-23T07:17:39;19.00;99.90
29731;DHT22;16639;51.488;0.152;2022-07-23T07:20:07;19.00;99.90
29731;DHT22;16639;51.488;0.152;2022-07-23T07:22:34;19.10;99.90
29731;DHT22;16639;51.488;0.152;2022-07-23T07:25:02;19.10;99.90
29731;DHT22;16639;51.488;0.152;2022-07-23T07:27:29;19.10;99.90
29731;DHT22;16639;51.488;0.152;2022-07-23T07:29:57;19.10;99.90
29731;DHT22;16639;51.488;0.152;2022-07-23T07:32:24;19.10;99.90
29731;DHT22;16639;51.488;0.152;2022-07-23T07:35:12;19.10;99.90
29731;DHT22;16639;51.488;0.152;2022-07-23T07:37:39;19.20;99.90
29731;DHT22;16639;51.488;0.152;2022-07-23T07:40:08;19.20;99.90
29731;DHT22;16639;51.488;0.152;2022-07-23T07:42:47;19.30;99.90
29731;DHT22;16639;51.488;0.152;2022-07-23T07:45:15;19.30;99.90
29731;DHT22;16639;51.488;0.152;2022-07-23T07:47:42;19.40;99.90
29731;DHT22;16639;51.488;0.152;2022-07-23T07:50:10;19.40;99.90
29731;DHT22;16639;51.488;0.152;2022-07-23T07:52:38;19.40;99.90
29731;DHT22;16639;51.488;0.152;2022-07-23T07:55:07;19.40;99.90
29731;DHT22;16639;51.488;0.152;2022-07-23T07:57:36;19.50;99.90
29731;DHT22;16639;51.488;0.152;2022-07-23T08:00:05;19.50;99.90
29731;DHT22;16639;51.488;0.152;2022-07-23T08:05:08;19.50;99.90
29731;DHT22;16639;51.488;0.152;2022-07-23T08:07:35;19.60;99.90
29731;DHT22;16639;51.488;0.152;2022-07-23T08:10:05;19.60;99.90
29731;DHT22;16639;51.488;0.152;2022-07-23T08:13:01;19.70;99.90
29731;DHT22;16639;51.488;0.152;2022-07-23T08:15:29;19.70;99.90
29731;DHT22;16639;51.488;0.152;2022-07-23T08:17:57;19.80;99.90
29731;DHT22;16639;51.488;0.152;2022-07-23T08:20:26;19.80;99.90
29731;DHT22;16639;51.488;0.152;2022-07-23T08:22:59;19.90;99.90
29731;DHT22;16639;51.488;0.152;2022-07-23T08:25:29;19.80;99.90
29731;DHT22;16639;51.488;0.152;2022-07-23T08:27:59;19.40;99.90
29731;DHT22;16639;51.488;0.152;2022-07-23T08:30:27;20.10;99.90
29731;DHT22;16639;51.488;0.152;2022-07-23T08:33:17;20.10;99.90
29731;DHT22;16639;51.488;0.152;2022-07-23T08:36:01;20.10;99.90
29731;DHT22;16639;51.488;0.152;2022-07-23T08:38:31;20.00;99.90
29731;DHT22;16639;51.488;0.152;2022-07-23T08:40:59;20.10;99.90
29731;DHT22;16639;51.488;0.152;2022-07-23T08:43:29;20.10;99.90
29731;DHT22;16639;51.488;0.152;2022-07-23T08:45:59;20.10;99.90
29731;DHT22;16639;51.488;0.152;2022-07-23T08:48:32;20.20;99.90
29731;DHT22;16639;51.488;0.152;2022-07-23T08:51:01;20.10;99.90
29731;DHT22;16639;51.488;0.152;2022-07-23T08:53:30;20.20;99.90
29731;DHT22;16639;51.488;0.152;2022-07-23T08:56:02;20.20;99.90
29731;DHT22;16639;51.488;0.152;2022-07-23T08:58:31;20.30;99.90
29731;DHT22;16639;51.488;0.152;2022-07-23T09:00:59;20.30;99.90
29731;DHT22;16639;51.488;0.152;2022-07-23T09:03:29;20.30;99.90
29731;DHT22;16639;51.488;0.152;2022-07-23T09:05:58;20.30;99.90
29731;DHT22;16639;51.488;0.152;2022-07-23T09:08:38;20.40;99.90
29731;DHT22;16639;51.488;0.152;2022-07-23T09:11:07;20.40;99.90
29731;DHT22;16639;51.488;0.152;2022-07-23T09:13:45;20.50;99.90
29731;DHT22;16639;51.488;0.152;2022-07-23T09:16:30;20.40;99.90
29731;DHT22;16639;51.488;0.152;2022-07-23T09:19:01;20.40;99.90
29731;DHT22;16639;51.488;0.152;2022-07-23T09:21:34;20.40;99.90
29731;DHT22;16639;51.488;0.152;2022-07-23T09:24:12;20.40;99.90
29731;DHT22;16639;51.488;0.152;2022-07-23T09:26:45;20.50;99.90
29731;DHT22;16639;51.488;0.152;2022-07-23T09:29:22;20.60;99.90
29731;DHT22;16639;51.488;0.152;2022-07-23T09:31:53;20.60;99.90
29731;DHT22;16639;51.488;0.152;2022-07-23T09:34:26;20.60;99.90
29731;DHT22;16639;51.488;0.152;2022-07-23T09:37:14;20.30;99.90
29731;DHT22;16639;51.488;0.152;2022-07-23T09:39:43;20.70;99.90
29731;DHT22;16639;51.488;0.152;2022-07-23T09:42:16;20.80;99.90
29731;DHT22;16639;51.488;0.152;2022-07-23T09:44:49;20.70;99.90
29731;DHT22;16639;51.488;0.152;2022-07-23T09:47:17;20.70;99.90
29731;DHT22;16639;51.488;0.152;2022-07-23T09:49:58;20.80;99.90
29731;DHT22;16639;51.488;0.152;2022-07-23T09:52:29;20.90;99.90
29731;DHT22;16639;51.488;0.152;2022-07-23T09:55:05;20.90;99.90
29731;DHT22;16639;51.488;0.152;2022-07-23T09:57:34;20.90;99.90
29731;DHT22;16639;51.488;0.152;2022-07-23T10:00:05;20.90;99.90
29731;DHT22;16639;51.488;0.152;2022-07-23T10:02:34;21.00;99.90
29731;DHT22;16639;51.488;0.152;2022-07-23T10:05:02;21.00;99.90
29731;DHT22;16639;51.488;0.152;2022-07-23T10:07:36;21.00;99.90
29731;DHT22;16639;51.488;0.152;2022-07-23T10:10:05;21.00;99.90
29731;DHT22;16639;51.488;0.152;2022-07-23T10:12:33;21.00;99.90
29731;DHT22;16639;51.488;0.152;2022-07-23T10:15:12;21.40;99.90
29731;DHT22;16639;51.488;0.152;2022-07-23T10:17:39;21.00;99.90
29731;DHT22;16639;51.488;0.152;2022-07-23T10:20:06;21.20;99.90
29731;DHT22;16639;51.488;0.152;2022-07-23T10:22:37;21.20;99.90
29731;DHT22;16639;51.488;0.152;2022-07-23T10:28:05;21.30;99.90
29731;DHT22;16639;51.488;0.152;2022-07-23T10:31:01;21.30;99.90
29731;DHT22;16639;51.488;0.152;2022-07-23T10:34:04;21.40;99.90
29731;DHT22;16639;51.488;0.152;2022-07-23T10:36:44;21.40;99.90
29731;DHT22;16639;51.488;0.152;2022-07-23T10:39:22;21.40;99.90
29731;DHT22;16639;51.488;0.152;2022-07-23T10:41:51;21.40;99.90
29731;DHT22;16639;51.488;0.152;2022-07-23T10:44:19;21.50;99.90
29731;DHT22;16639;51.488;0.152;2022-07-23T10:47:03;21.50;99.90
29731;DHT22;16639;51.488;0.152;2022-07-23T10:49:50;21.50;99.90
29731;DHT22;16639;51.488;0.152;2022-07-23T10:52:18;21.50;99.90
29731;DHT22;16639;51.488;0.152;2022-07-23T10:54:52;21.50;99.90
29731;DHT22;16639;51.488;0.152;2022-07-23T10:57:22;21.50;99.90
29731;DHT22;16639;51.488;0.152;2022-07-23T11:02:37;21.60;99.90
29731;DHT22;16639;51.488;0.152;2022-07-23T11:05:22;21.60;99.90
29731;DHT22;16639;51.488;0.152;2022-07-23T11:10:56;21.70;99.90
29731;DHT22;16639;51.488;0.152;2022-07-23T11:13:46;21.80;99.90
29731;DHT22;16639;51.488;0.152;2022-07-23T11:16:16;22.00;99.90
29731;DHT22;16639;51.488;0.152;2022-07-23T11:32:24;22.20;99.90
29731;DHT22;16639;51.488;0.152;2022-07-23T11:34:54;22.10;99.90
29731;DHT22;16639;51.488;0.152;2022-07-23T11:37:40;22.30;99.90
29731;DHT22;16639;51.488;0.152;2022-07-23T11:40:12;22.40;99.90
29731;DHT22;16639;51.488;0.152;2022-07-23T11:42:55;22.40;99.90
29731;DHT22;16639;51.488;0.152;2022-07-23T11:45:25;22.50;99.90
29731;DHT22;16639;51.488;0.152;2022-07-23T11:47:53;22.50;99.90
29731;DHT22;16639;51.488;0.152;2022-07-23T11:50:23;22.60;99.90
29731;DHT22;16639;51.488;0.152;2022-07-23T11:52:53;22.60;99.90
29731;DHT22;16639;51.488;0.152;2022-07-23T11:55:21;22.50;99.90
29731;DHT22;16639;51.488;0.152;2022-07-23T11:57:51;22.70;99.90
29731;DHT22;16639;51.488;0.152;2022-07-23T12:00:22;22.70;99.90
29731;DHT22;16639;51.488;0.152;2022-07-23T12:02:52;22.70;99.90
29731;DHT22;16639;51.488;0.152;2022-07-23T12:05:25;22.70;99.90
29731;DHT22;16639;51.488;0.152;2022-07-23T12:07:54;22.70;99.90
29731;DHT22;16639;51.488;0.152;2022-07-23T12:12:55;22.80;99.90
29731;DHT22;16639;51.488;0.152;2022-07-23T12:15:28;22.90;99.90
29731;DHT22;16639;51.488;0.152;2022-07-23T12:18:00;22.80;99.90
29731;DHT22;16639;51.488;0.152;2022-07-23T12:20:34;22.80;99.90
29731;DHT22;16639;51.488;0.152;2022-07-23T12:23:05;22.70;99.90
29731;DHT22;16639;51.488;0.152;2022-07-23T12:25:35;22.70;99.90
29731;DHT22;16639;51.488;0.152;2022-07-23T12:28:08;22.60;99.90
29731;DHT22;16639;51.488;0.152;2022-07-23T12:33:13;22.90;99.90
29731;DHT22;16639;51.488;0.152;2022-07-23T12:35:43;23.00;99.90
29731;DHT22;16639;51.488;0.152;2022-07-23T12:38:19;23.00;99.90
29731;DHT22;16639;51.488;0.152;2022-07-23T12:40:54;23.10;99.90
29731;DHT22;16639;51.488;0.152;2022-07-23T12:51:01;23.40;99.70
29731;DHT22;16639;51.488;0.152;2022-07-23T12:53:38;23.50;99.60
29731;DHT22;16639;51.488;0.152;2022-07-23T12:56:29;23.60;97.90
29731;DHT22;16639;51.488;0.152;2022-07-23T12:59:08;23.80;98.80
29731;DHT22;16639;51.488;0.152;2022-07-23T13:04:20;23.80;97.50
29731;DHT22;16639;51.488;0.152;2022-07-23T13:06:57;23.80;96.40
29731;DHT22;16639;51.488;0.152;2022-07-23T13:09:29;23.80;95.20
29731;DHT22;16639;51.488;0.152;2022-07-23T13:11:59;23.70;95.40
29731;DHT22;16639;51.488;0.152;2022-07-23T13:14:27;23.70;96.60
29731;DHT22;16639;51.488;0.152;2022-07-23T13:16:56;23.70;96.10
29731;DHT22;16639;51.488;0.152;2022-07-23T13:19:25;23.70;95.00
29731;DHT22;16639;51.488;0.152;2022-07-23T13:21:54;23.70;95.10
29731;DHT22;16639;51.488;0.152;2022-07-23T13:24:22;23.70;94.70
29731;DHT22;16639;51.488;0.152;2022-07-23T13:26:49;23.70;96.40
29731;DHT22;16639;51.488;0.152;2022-07-23T13:29:19;23.70;96.70
29731;DHT22;16639;51.488;0.152;2022-07-23T13:31:46;23.90;96.80
29731;DHT22;16639;51.488;0.152;2022-07-23T13:34:15;23.90;95.10
29731;DHT22;16639;51.488;0.152;2022-07-23T13:36:42;24.00;95.70
29731;DHT22;16639;51.488;0.152;2022-07-23T13:39:11;24.00;95.10
29731;DHT22;16639;51.488;0.152;2022-07-23T13:41:39;24.00;94.90
29731;DHT22;16639;51.488;0.152;2022-07-23T13:44:15;24.00;93.90
29731;DHT22;16639;51.488;0.152;2022-07-23T13:46:43;23.90;95.00
29731;DHT22;16639;51.488;0.152;2022-07-23T13:49:10;24.00;94.40
29731;DHT22;16639;51.488;0.152;2022-07-23T13:51:40;24.10;93.80
29731;DHT22;16639;51.488;0.152;2022-07-23T13:54:08;24.10;94.40
29731;DHT22;16639;51.488;0.152;2022-07-23T13:56:36;24.10;94.40
29731;DHT22;16639;51.488;0.152;2022-07-23T13:59:03;24.10;94.60
29731;DHT22;16639;51.488;0.152;2022-07-23T14:01:33;24.20;95.40
29731;DHT22;16639;51.488;0.152;2022-07-23T14:04:16;24.20;93.20
29731;DHT22;16639;51.488;0.152;2022-07-23T14:06:44;24.00;93.00
29731;DHT22;16639;51.488;0.152;2022-07-23T14:09:19;24.30;93.30
29731;DHT22;16639;51.488;0.152;2022-07-23T14:11:46;24.30;94.30
29731;DHT22;16639;51.488;0.152;2022-07-23T14:14:13;24.30;94.40
29731;DHT22;16639;51.488;0.152;2022-07-23T14:16:41;24.40;94.30
29731;DHT22;16639;51.488;0.152;2022-07-23T14:19:09;24.60;94.00
29731;DHT22;16639;51.488;0.152;2022-07-23T14:21:37;24.60;93.20
29731;DHT22;16639;51.488;0.152;2022-07-23T14:24:05;24.60;92.40
29731;DHT22;16639;51.488;0.152;2022-07-23T14:26:32;24.60;92.60
29731;DHT22;16639;51.488;0.152;2022-07-23T14:29:01;24.60;92.80
29731;DHT22;16639;51.488;0.152;2022-07-23T14:31:29;24.40;92.30
29731;DHT22;16639;51.488;0.152;2022-07-23T14:33:57;24.60;93.20
29731;DHT22;16639;51.488;0.152;2022-07-23T14:36:26;24.60;93.10
29731;DHT22;16639;51.488;0.152;2022-07-23T14:38:54;24.60;93.20
29731;DHT22;16639;51.488;0.152;2022-07-23T14:41:23;24.60;94.10
29731;DHT22;16639;51.488;0.152;2022-07-23T14:43:54;24.70;95.90
29731;DHT22;16639;51.488;0.152;2022-07-23T14:46:22;24.80;95.00
29731;DHT22;16639;51.488;0.152;2022-07-23T14:48:49;24.90;95.50
29731;DHT22;16639;51.488;0.152;2022-07-23T14:51:17;24.90;94.50
29731;DHT22;16639;51.488;0.152;2022-07-23T14:53:45;25.00;95.40
29731;DHT22;16639;51.488;0.152;2022-07-23T14:56:13;25.00;94.80
29731;DHT22;16639;51.488;0.152;2022-07-23T14:58:41;25.00;96.10
29731;DHT22;16639;51.488;0.152;2022-07-23T15:01:09;25.00;96.40
29731;DHT22;16639;51.488;0.152;2022-07-23T15:03:38;25.10;96.50
29731;DHT22;16639;51.488;0.152;2022-07-23T15:06:09;25.20;97.10
29731;DHT22;16639;51.488;0.152;2022-07-23T15:08:39;25.20;96.30
29731;DHT22;16639;51.488;0.152;2022-07-23T15:11:11;25.20;98.00
29731;DHT22;16639;51.488;0.152;2022-07-23T15:13:41;25.30;98.10
29731;DHT22;16639;51.488;0.152;2022-07-23T15:16:09;25.30;97.90
29731;DHT22;16639;51.488;0.152;2022-07-23T15:18:50;25.30;98.00
29731;DHT22;16639;51.488;0.152;2022-07-23T15:21:21;25.40;98.70
29731;DHT22;16639;51.488;0.152;2022-07-23T15:24:05;25.30;97.70
29731;DHT22;16639;51.488;0.152;2022-07-23T15:26:33;25.30;98.20
29731;DHT22;16639;51.488;0.152;2022-07-23T15:29:02;25.40;99.60
29731;DHT22;16639;51.488;0.152;2022-07-23T15:31:31;25.40;98.80
29731;DHT22;16639;51.488;0.152;2022-07-23T15:33:58;25.30;98.40
29731;DHT22;16639;51.488;0.152;2022-07-23T15:36:26;25.30;99.80
29731;DHT22;16639;51.488;0.152;2022-07-23T15:38:54;25.30;99.30
29731;DHT22;16639;51.488;0.152;2022-07-23T15:41:21;25.40;99.90
29731;DHT22;16639;51.488;0.152;2022-07-23T15:43:50;25.40;99.60
29731;DHT22;16639;51.488;0.152;2022-07-23T15:46:17;25.40;99.90
29731;DHT22;16639;51.488;0.152;2022-07-23T15:48:53;25.50;99.90
29731;DHT22;16639;51.488;0.152;2022-07-23T15:51:21;25.50;99.90
29731;DHT22;16639;51.488;0.152;2022-07-23T15:53:48;25.50;99.90
29731;DHT22;16639;51.488;0.152;2022-07-23T15:56:16;25.50;99.90
29731;DHT22;16639;51.488;0.152;2022-07-23T15:58:45;25.50;99.90
29731;DHT22;16639;51.488;0.152;2022-07-23T16:01:12;25.40;99.90
29731;DHT22;16639;51.488;0.152;2022-07-23T16:03:40;25.40;99.90
29731;DHT22;16639;51.488;0.152;2022-07-23T16:06:07;25.30;99.90
29731;DHT22;16639;51.488;0.152;2022-07-23T16:08:45;25.30;99.90
29731;DHT22;16639;51.488;0.152;2022-07-23T16:11:13;25.20;99.90
29731;DHT22;16639;51.488;0.152;2022-07-23T16:13:41;25.30;99.90
29731;DHT22;16639;51.488;0.152;2022-07-23T16:16:09;25.30;99.90
29731;DHT22;16639;51.488;0.152;2022-07-23T16:18:37;25.20;99.90
29731;DHT22;16639;51.488;0.152;2022-07-23T16:21:05;25.20;99.90
29731;DHT22;16639;51.488;0.152;2022-07-23T16:23:40;25.20;99.90
29731;DHT22;16639;51.488;0.152;2022-07-23T16:26:07;25.10;99.90